sensor_id;sensor_type;location;lat;lon;timestamp;temperature;humidity
2751;DHT22;1383;48.362;10.908;2023-10-31T00:00:14;11.80;96.70
2751;DHT22;1383;48.362;10.908;2023-10-31T00:02:41;11.90;97.00
2751;DHT22;1383;48.362;10.908;2023-10-31T00:05:08;11.90;96.50
2751;DHT22;1383;48.362;10.908;2023-10-31T00:07:35;11.90;96.60
2751;DHT22;1383;48.362;10.908;2023-10-31T00:10:02;11.80;96.40
2751;DHT22;1383;48.362;10.908;2023-10-31T00:12:29;11.80;96.20
2751;DHT22;1383;48.362;10.908;2023-10-31T00:14:56;11.80;96.20
2751;DHT22;1383;48.362;10.908;2023-10-31T00:17:23;11.80;96.00
2751;DHT22;1383;48.362;10.908;2023-10-31T00:19:50;11.70;95.70
2751;DHT22;1383;48.362;10.908;2023-10-31T00:22:17;11.70;96.10
2751;DHT22;1383;48.362;10.908;2023-10-31T00:24:44;11.80;96.40
2751;DHT22;1383;48.362;10.908;2023-10-31T00:27:11;11.80;96.20
2751;DHT22;1383;48.362;10.908;2023-10-31T00:29:37;11.80;96.00
2751;DHT22;1383;48.362;10.908;2023-10-31T00:32:04;11.70;95.50
2751;DHT22;1383;48.362;10.908;2023-10-31T00:34:32;11.60;95.10
2751;DHT22;1383;48.362;10.908;2023-10-31T00:36:59;11.60;95.10
2751;DHT22;1383;48.362;10.908;2023-10-31T00:39:26;11.60;95.20
2751;DHT22;1383;48.362;10.908;2023-10-31T00:41:53;11.60;95.00
2751;DHT22;1383;48.362;10.908;2023-10-31T00:44:20;11.50;95.00
2751;DHT22;1383;48.362;10.908;2023-10-31T00:46:47;11.60;95.20
2751;DHT22;1383;48.362;10.908;2023-10-31T00:49:13;11.60;95.40
2751;DHT22;1383;48.362;10.908;2023-10-31T00:51:40;11.60;95.20
2751;DHT22;1383;48.362;10.908;2023-10-31T00:54:07;11.50;95.10
2751;DHT22;1383;48.362;10.908;2023-10-31T00:56:34;11.50;95.40
2751;DHT22;1383;48.362;10.908;2023-10-31T00:59:01;11.50;94.70
2751;DHT22;1383;48.362;10.908;2023-10-31T01:01:28;11.40;94.70
2751;DHT22;1383;48.362;10.908;2023-10-31T01:03:55;11.40;95.10
2751;DHT22;1383;48.362;10.908;2023-10-31T01:06:22;11.40;95.60
2751;DHT22;1383;48.362;10.908;2023-10-31T01:08:49;11.40;95.50
2751;DHT22;1383;48.362;10.908;2023-10-31T01:11:15;11.50;95.80
2751;DHT22;1383;48.362;10.908;2023-10-31T01:13:42;11.50;95.50
2751;DHT22;1383;48.362;10.908;2023-10-31T01:16:09;11.50;95.40
2751;DHT22;1383;48.362;10.908;2023-10-31T01:18:36;11.50;95.30
2751;DHT22;1383;48.362;10.908;2023-10-31T01:21:03;11.40;94.70
2751;DHT22;1383;48.362;10.908;2023-10-31T01:23:30;11.40;94.70
2751;DHT22;1383;48.362;10.908;2023-10-31T01:25:56;11.40;94.70
2751;DHT22;1383;48.362;10.908;2023-10-31T01:28:23;11.40;94.70
2751;DHT22;1383;48.362;10.908;2023-10-31T01:30:50;11.40;94.80
2751;DHT22;1383;48.362;10.908;2023-10-31T01:33:17;11.40;95.00
2751;DHT22;1383;48.362;10.908;2023-10-31T01:35:44;11.40;95.00
2751;DHT22;1383;48.362;10.908;2023-10-31T01:38:11;11.40;94.70
2751;DHT22;1383;48.362;10.908;2023-10-31T01:40:38;11.40;94.70
2751;DHT22;1383;48.362;10.908;2023-10-31T01:43:04;11.40;94.60
2751;DHT22;1383;48.362;10.908;2023-10-31T01:45:31;11.40;94.70
2751;DHT22;1383;48.362;10.908;2023-10-31T01:47:58;11.40;94.60
2751;DHT22;1383;48.362;10.908;2023-10-31T01:50:26;11.40;94.20
2751;DHT22;1383;48.362;10.908;2023-10-31T01:52:53;11.40;94.20
2751;DHT22;1383;48.362;10.908;2023-10-31T01:55:20;11.40;94.30
2751;DHT22;1383;48.362;10.908;2023-10-31T01:57:48;11.50;94.40
2751;DHT22;1383;48.362;10.908;2023-10-31T02:00:16;11.50;94.00
2751;DHT22;1383;48.362;10.908;2023-10-31T02:02:43;11.50;94.00
2751;DHT22;1383;48.362;10.908;2023-10-31T02:05:10;11.40;93.70
2751;DHT22;1383;48.362;10.908;2023-10-31T02:07:37;11.40;93.50
2751;DHT22;1383;48.362;10.908;2023-10-31T02:10:07;11.40;93.90
2751;DHT22;1383;48.362;10.908;2023-10-31T02:12:35;11.40;94.10
2751;DHT22;1383;48.362;10.908;2023-10-31T02:15:03;11.40;94.60
2751;DHT22;1383;48.362;10.908;2023-10-31T02:17:30;11.40;94.40
2751;DHT22;1383;48.362;10.908;2023-10-31T02:19:57;11.40;94.10
2751;DHT22;1383;48.362;10.908;2023-10-31T02:22:24;11.30;94.30
2751;DHT22;1383;48.362;10.908;2023-10-31T02:24:53;11.40;94.40
2751;DHT22;1383;48.362;10.908;2023-10-31T02:27:19;11.40;94.70
2751;DHT22;1383;48.362;10.908;2023-10-31T02:29:46;11.40;94.70
2751;DHT22;1383;48.362;10.908;2023-10-31T02:32:13;11.40;94.20
2751;DHT22;1383;48.362;10.908;2023-10-31T02:34:42;11.30;94.20
2751;DHT22;1383;48.362;10.908;2023-10-31T02:37:08;11.30;94.30
2751;DHT22;1383;48.362;10.908;2023-10-31T02:39:36;11.40;94.60
2751;DHT22;1383;48.362;10.908;2023-10-31T02:42:04;11.30;94.60
2751;DHT22;1383;48.362;10.908;2023-10-31T02:44:30;11.40;94.70
2751;DHT22;1383;48.362;10.908;2023-10-31T02:46:57;11.40;94.50
2751;DHT22;1383;48.362;10.908;2023-10-31T02:49:24;11.40;94.50
2751;DHT22;1383;48.362;10.908;2023-10-31T02:51:51;11.40;94.40
2751;DHT22;1383;48.362;10.908;2023-10-31T02:54:18;11.40;94.20
2751;DHT22;1383;48.362;10.908;2023-10-31T02:56:44;11.40;94.20
2751;DHT22;1383;48.362;10.908;2023-10-31T02:59:11;11.40;94.10
2751;DHT22;1383;48.362;10.908;2023-10-31T03:01:38;11.40;94.10
2751;DHT22;1383;48.362;10.908;2023-10-31T03:04:05;11.40;93.90
2751;DHT22;1383;48.362;10.908;2023-10-31T03:06:32;11.50;93.90
2751;DHT22;1383;48.362;10.908;2023-10-31T03:08:59;11.50;93.70
2751;DHT22;1383;48.362;10.908;2023-10-31T03:11:26;11.50;93.50
2751;DHT22;1383;48.362;10.908;2023-10-31T03:13:53;11.50;93.50
2751;DHT22;1383;48.362;10.908;2023-10-31T03:16:21;11.40;93.60
2751;DHT22;1383;48.362;10.908;2023-10-31T03:18:48;11.50;93.80
2751;DHT22;1383;48.362;10.908;2023-10-31T03:21:15;11.60;93.70
2751;DHT22;1383;48.362;10.908;2023-10-31T03:23:43;11.50;93.30
2751;DHT22;1383;48.362;10.908;2023-10-31T03:26:12;11.50;92.80
2751;DHT22;1383;48.362;10.908;2023-10-31T03:28:39;11.50;92.80
2751;DHT22;1383;48.362;10.908;2023-10-31T03:31:06;11.50;92.70
2751;DHT22;1383;48.362;10.908;2023-10-31T03:33:33;11.50;92.40
2751;DHT22;1383;48.362;10.908;2023-10-31T03:36:00;11.50;92.10
2751;DHT22;1383;48.362;10.908;2023-10-31T03:38:27;11.40;92.30
2751;DHT22;1383;48.362;10.908;2023-10-31T03:40:53;11.50;92.80
2751;DHT22;1383;48.362;10.908;2023-10-31T03:43:20;11.50;92.80
2751;DHT22;1383;48.362;10.908;2023-10-31T03:45:47;11.50;92.40
2751;DHT22;1383;48.362;10.908;2023-10-31T03:48:15;11.50;92.20
2751;DHT22;1383;48.362;10.908;2023-10-31T03:50:42;11.50;92.10
2751;DHT22;1383;48.362;10.908;2023-10-31T03:53:09;11.50;91.80
2751;DHT22;1383;48.362;10.908;2023-10-31T03:55:36;11.60;91.80
2751;DHT22;1383;48.362;10.908;2023-10-31T03:58:03;11.50;91.40
2751;DHT22;1383;48.362;10.908;2023-10-31T04:00:30;11.50;91.30
2751;DHT22;1383;48.362;10.908;2023-10-31T04:02:57;11.50;91.10
2751;DHT22;1383;48.362;10.908;2023-10-31T04:05:24;11.50;90.50
2751;DHT22;1383;48.362;10.908;2023-10-31T04:07:52;11.50;90.30
2751;DHT22;1383;48.362;10.908;2023-10-31T04:10:19;11.40;90.20
2751;DHT22;1383;48.362;10.908;2023-10-31T04:12:46;11.40;90.20
2751;DHT22;1383;48.362;10.908;2023-10-31T04:15:13;11.40;90.30
2751;DHT22;1383;48.362;10.908;2023-10-31T04:17:39;11.40;90.20
2751;DHT22;1383;48.362;10.908;2023-10-31T04:20:07;11.40;90.10
2751;DHT22;1383;48.362;10.908;2023-10-31T04:22:34;11.40;88.60
2751;DHT22;1383;48.362;10.908;2023-10-31T04:25:02;11.30;88.10
2751;DHT22;1383;48.362;10.908;2023-10-31T04:27:28;11.30;88.80
2751;DHT22;1383;48.362;10.908;2023-10-31T04:29:55;11.30;89.00
2751;DHT22;1383;48.362;10.908;2023-10-31T04:32:22;11.20;88.90
2751;DHT22;1383;48.362;10.908;2023-10-31T04:34:49;11.30;89.90
2751;DHT22;1383;48.362;10.908;2023-10-31T04:37:16;11.30;88.90
2751;DHT22;1383;48.362;10.908;2023-10-31T04:39:43;11.30;89.00
2751;DHT22;1383;48.362;10.908;2023-10-31T04:42:10;11.20;88.00
2751;DHT22;1383;48.362;10.908;2023-10-31T04:44:36;11.10;88.30
2751;DHT22;1383;48.362;10.908;2023-10-31T04:47:04;11.10;88.40
2751;DHT22;1383;48.362;10.908;2023-10-31T04:49:35;11.10;88.70
2751;DHT22;1383;48.362;10.908;2023-10-31T04:52:02;11.20;88.90
2751;DHT22;1383;48.362;10.908;2023-10-31T04:54:29;11.20;88.20
2751;DHT22;1383;48.362;10.908;2023-10-31T04:56:56;11.20;87.50
2751;DHT22;1383;48.362;10.908;2023-10-31T04:59:22;11.20;86.90
2751;DHT22;1383;48.362;10.908;2023-10-31T05:01:50;11.20;86.40
2751;DHT22;1383;48.362;10.908;2023-10-31T05:04:18;11.20;87.20
2751;DHT22;1383;48.362;10.908;2023-10-31T05:06:45;11.20;87.60
2751;DHT22;1383;48.362;10.908;2023-10-31T05:09:13;11.20;87.20
2751;DHT22;1383;48.362;10.908;2023-10-31T05:11:41;11.20;87.30
2751;DHT22;1383;48.362;10.908;2023-10-31T05:14:08;11.20;86.90
2751;DHT22;1383;48.362;10.908;2023-10-31T05:16:41;11.20;86.40
2751;DHT22;1383;48.362;10.908;2023-10-31T05:19:09;11.20;86.80
2751;DHT22;1383;48.362;10.908;2023-10-31T05:21:36;11.30;86.80
2751;DHT22;1383;48.362;10.908;2023-10-31T05:24:03;11.20;85.90
2751;DHT22;1383;48.362;10.908;2023-10-31T05:26:30;11.20;85.60
2751;DHT22;1383;48.362;10.908;2023-10-31T05:28:57;11.20;86.10
2751;DHT22;1383;48.362;10.908;2023-10-31T05:31:25;11.20;85.70
2751;DHT22;1383;48.362;10.908;2023-10-31T05:33:52;11.20;86.10
2751;DHT22;1383;48.362;10.908;2023-10-31T05:36:24;11.20;85.50
2751;DHT22;1383;48.362;10.908;2023-10-31T05:38:51;11.10;85.50
2751;DHT22;1383;48.362;10.908;2023-10-31T05:41:18;11.20;85.60
2751;DHT22;1383;48.362;10.908;2023-10-31T05:43:45;11.20;84.80
2751;DHT22;1383;48.362;10.908;2023-10-31T05:46:12;11.20;84.50
2751;DHT22;1383;48.362;10.908;2023-10-31T05:48:44;11.30;84.20
2751;DHT22;1383;48.362;10.908;2023-10-31T05:51:17;11.30;83.90
2751;DHT22;1383;48.362;10.908;2023-10-31T05:53:46;11.30;83.00
2751;DHT22;1383;48.362;10.908;2023-10-31T05:56:15;11.30;82.70
2751;DHT22;1383;48.362;10.908;2023-10-31T05:58:42;11.30;81.90
2751;DHT22;1383;48.362;10.908;2023-10-31T06:01:09;11.30;81.90
2751;DHT22;1383;48.362;10.908;2023-10-31T06:03:36;11.30;81.00
2751;DHT22;1383;48.362;10.908;2023-10-31T06:06:04;11.20;81.10
2751;DHT22;1383;48.362;10.908;2023-10-31T06:08:31;11.30;81.00
2751;DHT22;1383;48.362;10.908;2023-10-31T06:10:58;11.20;79.80
2751;DHT22;1383;48.362;10.908;2023-10-31T06:13:26;11.20;80.00
2751;DHT22;1383;48.362;10.908;2023-10-31T06:15:54;11.20;79.70
2751;DHT22;1383;48.362;10.908;2023-10-31T06:18:26;11.20;79.80
2751;DHT22;1383;48.362;10.908;2023-10-31T06:20:53;11.20;78.80
2751;DHT22;1383;48.362;10.908;2023-10-31T06:23:20;11.10;78.40
2751;DHT22;1383;48.362;10.908;2023-10-31T06:25:47;11.10;78.90
2751;DHT22;1383;48.362;10.908;2023-10-31T06:28:14;11.10;78.90
2751;DHT22;1383;48.362;10.908;2023-10-31T06:30:41;11.10;78.90
2751;DHT22;1383;48.362;10.908;2023-10-31T06:33:08;11.10;79.10
2751;DHT22;1383;48.362;10.908;2023-10-31T06:35:37;11.10;79.40
2751;DHT22;1383;48.362;10.908;2023-10-31T06:38:04;11.20;79.70
2751;DHT22;1383;48.362;10.908;2023-10-31T06:40:31;11.10;79.40
2751;DHT22;1383;48.362;10.908;2023-10-31T06:42:57;11.10;79.40
2751;DHT22;1383;48.362;10.908;2023-10-31T06:45:25;11.20;79.10
2751;DHT22;1383;48.362;10.908;2023-10-31T06:47:52;11.10;79.40
2751;DHT22;1383;48.362;10.908;2023-10-31T06:50:19;11.20;79.50
2751;DHT22;1383;48.362;10.908;2023-10-31T06:52:47;11.20;79.10
2751;DHT22;1383;48.362;10.908;2023-10-31T06:55:14;11.20;78.60
2751;DHT22;1383;48.362;10.908;2023-10-31T06:57:41;11.20;78.40
2751;DHT22;1383;48.362;10.908;2023-10-31T07:00:08;11.30;77.60
2751;DHT22;1383;48.362;10.908;2023-10-31T07:02:38;11.30;77.40
2751;DHT22;1383;48.362;10.908;2023-10-31T07:05:05;11.40;77.90
2751;DHT22;1383;48.362;10.908;2023-10-31T07:07:32;11.40;76.60
2751;DHT22;1383;48.362;10.908;2023-10-31T07:09:59;11.30;76.10
2751;DHT22;1383;48.362;10.908;2023-10-31T07:12:26;11.40;76.00
2751;DHT22;1383;48.362;10.908;2023-10-31T07:14:53;11.40;75.60
2751;DHT22;1383;48.362;10.908;2023-10-31T07:17:20;11.40;75.30
2751;DHT22;1383;48.362;10.908;2023-10-31T07:19:47;11.40;74.50
2751;DHT22;1383;48.362;10.908;2023-10-31T07:22:14;11.50;73.50
2751;DHT22;1383;48.362;10.908;2023-10-31T07:24:41;11.50;73.50
2751;DHT22;1383;48.362;10.908;2023-10-31T07:27:09;11.50;73.90
2751;DHT22;1383;48.362;10.908;2023-10-31T07:29:39;11.60;73.60
2751;DHT22;1383;48.362;10.908;2023-10-31T07:32:10;11.50;72.20
2751;DHT22;1383;48.362;10.908;2023-10-31T07:34:41;11.50;72.30
2751;DHT22;1383;48.362;10.908;2023-10-31T07:37:08;11.40;72.10
2751;DHT22;1383;48.362;10.908;2023-10-31T07:39:35;11.50;71.50
2751;DHT22;1383;48.362;10.908;2023-10-31T07:42:02;11.50;71.20
2751;DHT22;1383;48.362;10.908;2023-10-31T07:44:30;11.50;70.90
2751;DHT22;1383;48.362;10.908;2023-10-31T07:46:57;11.50;70.40
2751;DHT22;1383;48.362;10.908;2023-10-31T07:49:24;11.50;69.70
2751;DHT22;1383;48.362;10.908;2023-10-31T07:51:51;11.60;70.30
2751;DHT22;1383;48.362;10.908;2023-10-31T07:54:18;11.60;69.40
2751;DHT22;1383;48.362;10.908;2023-10-31T07:56:45;11.60;69.60
2751;DHT22;1383;48.362;10.908;2023-10-31T07:59:12;11.60;69.40
2751;DHT22;1383;48.362;10.908;2023-10-31T08:01:39;11.60;68.50
2751;DHT22;1383;48.362;10.908;2023-10-31T08:04:06;11.70;68.40
2751;DHT22;1383;48.362;10.908;2023-10-31T08:06:33;11.70;69.30
2751;DHT22;1383;48.362;10.908;2023-10-31T08:09:00;11.70;67.70
2751;DHT22;1383;48.362;10.908;2023-10-31T08:11:27;11.70;68.10
2751;DHT22;1383;48.362;10.908;2023-10-31T08:13:54;11.80;67.50
2751;DHT22;1383;48.362;10.908;2023-10-31T08:16:21;11.80;66.90
2751;DHT22;1383;48.362;10.908;2023-10-31T08:18:48;11.90;66.30
2751;DHT22;1383;48.362;10.908;2023-10-31T08:21:15;11.90;66.10
2751;DHT22;1383;48.362;10.908;2023-10-31T08:23:44;11.90;65.10
2751;DHT22;1383;48.362;10.908;2023-10-31T08:26:13;12.00;64.40
2751;DHT22;1383;48.362;10.908;2023-10-31T08:28:40;11.90;64.60
2751;DHT22;1383;48.362;10.908;2023-10-31T08:31:07;12.00;64.20
2751;DHT22;1383;48.362;10.908;2023-10-31T08:33:34;12.00;63.80
2751;DHT22;1383;48.362;10.908;2023-10-31T08:36:01;12.10;63.70
2751;DHT22;1383;48.362;10.908;2023-10-31T08:38:28;12.10;63.40
2751;DHT22;1383;48.362;10.908;2023-10-31T08:40:58;12.10;62.60
2751;DHT22;1383;48.362;10.908;2023-10-31T08:43:26;12.00;62.60
2751;DHT22;1383;48.362;10.908;2023-10-31T08:45:53;12.00;63.00
2751;DHT22;1383;48.362;10.908;2023-10-31T08:48:20;12.10;63.00
2751;DHT22;1383;48.362;10.908;2023-10-31T08:50:47;12.10;62.80
2751;DHT22;1383;48.362;10.908;2023-10-31T08:53:15;12.20;62.00
2751;DHT22;1383;48.362;10.908;2023-10-31T08:55:42;12.20;61.00
2751;DHT22;1383;48.362;10.908;2023-10-31T08:58:11;12.20;60.60
2751;DHT22;1383;48.362;10.908;2023-10-31T09:00:39;12.20;60.30
2751;DHT22;1383;48.362;10.908;2023-10-31T09:03:09;12.20;59.80
2751;DHT22;1383;48.362;10.908;2023-10-31T09:05:36;12.20;60.00
2751;DHT22;1383;48.362;10.908;2023-10-31T09:08:03;12.20;59.80
2751;DHT22;1383;48.362;10.908;2023-10-31T09:10:30;12.20;60.50
2751;DHT22;1383;48.362;10.908;2023-10-31T09:12:57;12.20;60.70
2751;DHT22;1383;48.362;10.908;2023-10-31T09:15:24;12.30;60.30
2751;DHT22;1383;48.362;10.908;2023-10-31T09:17:51;12.30;60.20
2751;DHT22;1383;48.362;10.908;2023-10-31T09:20:18;12.30;59.20
2751;DHT22;1383;48.362;10.908;2023-10-31T09:22:45;12.30;59.20
2751;DHT22;1383;48.362;10.908;2023-10-31T09:25:11;12.40;58.80
2751;DHT22;1383;48.362;10.908;2023-10-31T09:27:40;12.40;58.70
2751;DHT22;1383;48.362;10.908;2023-10-31T09:30:07;12.40;58.80
2751;DHT22;1383;48.362;10.908;2023-10-31T09:32:35;12.40;58.50
2751;DHT22;1383;48.362;10.908;2023-10-31T09:35:03;12.50;58.60
2751;DHT22;1383;48.362;10.908;2023-10-31T09:37:30;12.60;58.50
2751;DHT22;1383;48.362;10.908;2023-10-31T09:39:56;12.60;57.90
2751;DHT22;1383;48.362;10.908;2023-10-31T09:42:23;12.60;57.30
2751;DHT22;1383;48.362;10.908;2023-10-31T09:44:50;12.70;57.90
2751;DHT22;1383;48.362;10.908;2023-10-31T09:47:19;12.70;57.70
2751;DHT22;1383;48.362;10.908;2023-10-31T09:49:47;12.80;57.40
2751;DHT22;1383;48.362;10.908;2023-10-31T09:52:14;13.00;56.80
2751;DHT22;1383;48.362;10.908;2023-10-31T09:54:41;13.00;55.90
2751;DHT22;1383;48.362;10.908;2023-10-31T09:57:14;13.10;55.90
2751;DHT22;1383;48.362;10.908;2023-10-31T09:59:41;13.00;55.30
2751;DHT22;1383;48.362;10.908;2023-10-31T10:02:08;13.00;55.10
2751;DHT22;1383;48.362;10.908;2023-10-31T10:04:37;13.10;55.90
2751;DHT22;1383;48.362;10.908;2023-10-31T10:07:05;13.20;55.10
2751;DHT22;1383;48.362;10.908;2023-10-31T10:09:32;13.20;54.50
2751;DHT22;1383;48.362;10.908;2023-10-31T10:12:00;13.20;54.20
2751;DHT22;1383;48.362;10.908;2023-10-31T10:14:28;13.10;54.30
2751;DHT22;1383;48.362;10.908;2023-10-31T10:16:58;13.10;55.20
2751;DHT22;1383;48.362;10.908;2023-10-31T10:19:25;13.20;55.10
2751;DHT22;1383;48.362;10.908;2023-10-31T10:21:56;13.20;54.50
2751;DHT22;1383;48.362;10.908;2023-10-31T10:24:24;13.40;54.20
2751;DHT22;1383;48.362;10.908;2023-10-31T10:26:52;13.50;53.90
2751;DHT22;1383;48.362;10.908;2023-10-31T10:29:19;13.60;53.60
2751;DHT22;1383;48.362;10.908;2023-10-31T10:31:46;13.60;53.30
2751;DHT22;1383;48.362;10.908;2023-10-31T10:34:16;13.70;53.40
2751;DHT22;1383;48.362;10.908;2023-10-31T10:36:49;13.70;52.70
2751;DHT22;1383;48.362;10.908;2023-10-31T10:39:20;13.70;51.60
2751;DHT22;1383;48.362;10.908;2023-10-31T10:41:55;13.70;51.60
2751;DHT22;1383;48.362;10.908;2023-10-31T10:44:36;13.70;51.20
2751;DHT22;1383;48.362;10.908;2023-10-31T10:47:06;13.60;51.10
2751;DHT22;1383;48.362;10.908;2023-10-31T10:49:37;13.70;51.30
2751;DHT22;1383;48.362;10.908;2023-10-31T10:52:17;13.60;50.80
2751;DHT22;1383;48.362;10.908;2023-10-31T10:57:32;13.70;51.30
2751;DHT22;1383;48.362;10.908;2023-10-31T11:00:04;13.70;50.90
2751;DHT22;1383;48.362;10.908;2023-10-31T11:02:36;13.70;50.90
2751;DHT22;1383;48.362;10.908;2023-10-31T11:05:06;13.70;50.60
2751;DHT22;1383;48.362;10.908;2023-10-31T11:07:37;13.80;49.70
2751;DHT22;1383;48.362;10.908;2023-10-31T11:10:05;13.80;49.90
2751;DHT22;1383;48.362;10.908;2023-10-31T11:12:33;13.80;49.50
2751;DHT22;1383;48.362;10.908;2023-10-31T11:15:01;13.90;50.00
2751;DHT22;1383;48.362;10.908;2023-10-31T11:17:42;14.00;49.20
2751;DHT22;1383;48.362;10.908;2023-10-31T11:20:11;14.20;49.00
2751;DHT22;1383;48.362;10.908;2023-10-31T11:22:42;14.10;48.40
2751;DHT22;1383;48.362;10.908;2023-10-31T11:25:16;14.20;48.40
2751;DHT22;1383;48.362;10.908;2023-10-31T11:28:10;14.40;48.50
2751;DHT22;1383;48.362;10.908;2023-10-31T11:30:37;14.50;48.20
2751;DHT22;1383;48.362;10.908;2023-10-31T11:33:04;14.70;47.90
2751;DHT22;1383;48.362;10.908;2023-10-31T11:35:41;14.70;47.40
2751;DHT22;1383;48.362;10.908;2023-10-31T11:38:11;14.80;46.40
2751;DHT22;1383;48.362;10.908;2023-10-31T11:40:59;14.70;45.90
2751;DHT22;1383;48.362;10.908;2023-10-31T11:43:51;14.70;45.90
2751;DHT22;1383;48.362;10.908;2023-10-31T11:46:23;14.40;46.40
2751;DHT22;1383;48.362;10.908;2023-10-31T11:48:53;14.40;46.40
2751;DHT22;1383;48.362;10.908;2023-10-31T11:51:23;14.30;46.90
2751;DHT22;1383;48.362;10.908;2023-10-31T11:53:50;14.20;46.30
2751;DHT22;1383;48.362;10.908;2023-10-31T11:56:17;14.20;46.40
2751;DHT22;1383;48.362;10.908;2023-10-31T11:58:44;14.20;45.80
2751;DHT22;1383;48.362;10.908;2023-10-31T12:01:21;14.20;46.20
2751;DHT22;1383;48.362;10.908;2023-10-31T12:03:47;14.30;45.80
2751;DHT22;1383;48.362;10.908;2023-10-31T12:06:15;14.40;45.70
2751;DHT22;1383;48.362;10.908;2023-10-31T12:08:45;14.40;45.60
2751;DHT22;1383;48.362;10.908;2023-10-31T12:11:18;14.30;45.60
2751;DHT22;1383;48.362;10.908;2023-10-31T12:14:02;14.20;45.70
2751;DHT22;1383;48.362;10.908;2023-10-31T12:16:33;14.30;46.30
2751;DHT22;1383;48.362;10.908;2023-10-31T12:19:04;14.20;46.60
2751;DHT22;1383;48.362;10.908;2023-10-31T12:21:40;14.20;47.20
2751;DHT22;1383;48.362;10.908;2023-10-31T12:24:15;14.20;48.70
2751;DHT22;1383;48.362;10.908;2023-10-31T12:26:45;14.40;49.70
2751;DHT22;1383;48.362;10.908;2023-10-31T12:29:13;14.50;49.70
2751;DHT22;1383;48.362;10.908;2023-10-31T12:31:44;14.50;49.90
2751;DHT22;1383;48.362;10.908;2023-10-31T12:34:15;14.50;49.30
2751;DHT22;1383;48.362;10.908;2023-10-31T12:36:43;14.40;49.70
2751;DHT22;1383;48.362;10.908;2023-10-31T12:39:11;14.50;49.90
2751;DHT22;1383;48.362;10.908;2023-10-31T12:41:40;14.50;50.50
2751;DHT22;1383;48.362;10.908;2023-10-31T12:44:08;14.60;50.30
2751;DHT22;1383;48.362;10.908;2023-10-31T12:46:40;14.60;50.40
2751;DHT22;1383;48.362;10.908;2023-10-31T12:49:12;14.60;50.40
2751;DHT22;1383;48.362;10.908;2023-10-31T12:52:01;14.60;51.20
2751;DHT22;1383;48.362;10.908;2023-10-31T12:54:37;14.40;51.20
2751;DHT22;1383;48.362;10.908;2023-10-31T12:57:05;14.40;51.70
2751;DHT22;1383;48.362;10.908;2023-10-31T12:59:35;14.40;51.90
2751;DHT22;1383;48.362;10.908;2023-10-31T13:02:03;14.30;52.40
2751;DHT22;1383;48.362;10.908;2023-10-31T13:04:31;14.30;52.20
2751;DHT22;1383;48.362;10.908;2023-10-31T13:07:01;14.30;52.70
2751;DHT22;1383;48.362;10.908;2023-10-31T13:09:29;14.30;52.70
2751;DHT22;1383;48.362;10.908;2023-10-31T13:12:07;14.40;52.80
2751;DHT22;1383;48.362;10.908;2023-10-31T13:14:34;14.40;52.80
2751;DHT22;1383;48.362;10.908;2023-10-31T13:17:03;14.40;53.60
2751;DHT22;1383;48.362;10.908;2023-10-31T13:19:30;14.40;54.10
2751;DHT22;1383;48.362;10.908;2023-10-31T13:21:57;14.40;54.30
2751;DHT22;1383;48.362;10.908;2023-10-31T13:24:24;14.30;54.00
2751;DHT22;1383;48.362;10.908;2023-10-31T13:26:51;14.30;53.60
2751;DHT22;1383;48.362;10.908;2023-10-31T13:29:20;14.20;53.00
2751;DHT22;1383;48.362;10.908;2023-10-31T13:31:47;14.20;53.30
2751;DHT22;1383;48.362;10.908;2023-10-31T13:34:14;14.10;53.60
2751;DHT22;1383;48.362;10.908;2023-10-31T13:36:41;14.20;54.20
2751;DHT22;1383;48.362;10.908;2023-10-31T13:39:08;14.10;53.70
2751;DHT22;1383;48.362;10.908;2023-10-31T13:41:35;14.00;54.60
2751;DHT22;1383;48.362;10.908;2023-10-31T13:44:03;14.00;55.10
2751;DHT22;1383;48.362;10.908;2023-10-31T13:46:30;14.00;55.60
2751;DHT22;1383;48.362;10.908;2023-10-31T13:48:57;14.10;55.70
2751;DHT22;1383;48.362;10.908;2023-10-31T13:51:24;14.10;55.70
2751;DHT22;1383;48.362;10.908;2023-10-31T13:53:51;14.10;56.30
2751;DHT22;1383;48.362;10.908;2023-10-31T13:56:18;14.10;55.70
2751;DHT22;1383;48.362;10.908;2023-10-31T13:58:45;14.20;55.70
2751;DHT22;1383;48.362;10.908;2023-10-31T14:01:12;14.30;55.40
2751;DHT22;1383;48.362;10.908;2023-10-31T14:03:39;14.10;55.30
2751;DHT22;1383;48.362;10.908;2023-10-31T14:06:06;14.10;55.70
2751;DHT22;1383;48.362;10.908;2023-10-31T14:08:47;14.00;55.10
2751;DHT22;1383;48.362;10.908;2023-10-31T14:11:14;13.90;55.10
2751;DHT22;1383;48.362;10.908;2023-10-31T14:13:42;13.90;55.50
2751;DHT22;1383;48.362;10.908;2023-10-31T14:16:11;13.90;55.70
2751;DHT22;1383;48.362;10.908;2023-10-31T14:18:38;13.70;56.30
2751;DHT22;1383;48.362;10.908;2023-10-31T14:21:05;13.80;56.90
2751;DHT22;1383;48.362;10.908;2023-10-31T14:23:32;13.80;56.60
2751;DHT22;1383;48.362;10.908;2023-10-31T14:25:59;13.70;56.60
2751;DHT22;1383;48.362;10.908;2023-10-31T14:28:26;13.80;56.60
2751;DHT22;1383;48.362;10.908;2023-10-31T14:30:53;13.80;56.70
2751;DHT22;1383;48.362;10.908;2023-10-31T14:33:20;13.80;57.20
2751;DHT22;1383;48.362;10.908;2023-10-31T14:35:48;13.80;56.90
2751;DHT22;1383;48.362;10.908;2023-10-31T14:38:14;13.90;56.20
2751;DHT22;1383;48.362;10.908;2023-10-31T14:40:42;13.90;55.50
2751;DHT22;1383;48.362;10.908;2023-10-31T14:43:09;13.90;55.70
2751;DHT22;1383;48.362;10.908;2023-10-31T14:45:36;13.80;55.80
2751;DHT22;1383;48.362;10.908;2023-10-31T14:48:03;13.80;57.40
2751;DHT22;1383;48.362;10.908;2023-10-31T14:50:30;13.70;57.10
2751;DHT22;1383;48.362;10.908;2023-10-31T14:52:56;13.70;57.40
2751;DHT22;1383;48.362;10.908;2023-10-31T14:55:23;13.80;57.50
2751;DHT22;1383;48.362;10.908;2023-10-31T14:57:50;13.70;57.20
2751;DHT22;1383;48.362;10.908;2023-10-31T15:00:17;13.60;57.40
2751;DHT22;1383;48.362;10.908;2023-10-31T15:02:44;13.50;57.50
2751;DHT22;1383;48.362;10.908;2023-10-31T15:05:11;13.50;58.10
2751;DHT22;1383;48.362;10.908;2023-10-31T15:07:38;13.40;58.40
2751;DHT22;1383;48.362;10.908;2023-10-31T15:10:07;13.50;58.60
2751;DHT22;1383;48.362;10.908;2023-10-31T15:12:34;13.40;58.50
2751;DHT22;1383;48.362;10.908;2023-10-31T15:15:01;13.40;58.80
2751;DHT22;1383;48.362;10.908;2023-10-31T15:17:27;13.40;59.10
2751;DHT22;1383;48.362;10.908;2023-10-31T15:19:54;13.40;58.50
2751;DHT22;1383;48.362;10.908;2023-10-31T15:22:21;13.30;58.80
2751;DHT22;1383;48.362;10.908;2023-10-31T15:24:48;13.20;59.20
2751;DHT22;1383;48.362;10.908;2023-10-31T15:27:15;13.20;58.80
2751;DHT22;1383;48.362;10.908;2023-10-31T15:29:44;13.10;58.90
2751;DHT22;1383;48.362;10.908;2023-10-31T15:32:11;13.10;59.10
2751;DHT22;1383;48.362;10.908;2023-10-31T15:34:39;13.10;59.50
2751;DHT22;1383;48.362;10.908;2023-10-31T15:37:09;13.00;59.40
2751;DHT22;1383;48.362;10.908;2023-10-31T15:39:38;13.00;59.90
2751;DHT22;1383;48.362;10.908;2023-10-31T15:42:06;13.00;59.90
2751;DHT22;1383;48.362;10.908;2023-10-31T15:44:37;12.90;60.20
2751;DHT22;1383;48.362;10.908;2023-10-31T15:47:07;12.90;60.00
2751;DHT22;1383;48.362;10.908;2023-10-31T15:49:35;12.90;60.50
2751;DHT22;1383;48.362;10.908;2023-10-31T15:52:02;12.90;60.90